createdAt,value
2024-01-20T01:16:49.200Z,2.60
2024-01-20T01:18:21.969Z,1.92
2024-01-20T01:19:54.317Z,2.10
2024-01-20T01:21:26.516Z,2.20
2024-01-20T01:22:58.733Z,2.00
2024-01-20T01:24:30.867Z,2.17
2024-01-20T01:26:03.217Z,2.72
2024-01-20T01:27:35.414Z,2.50
2024-01-20T01:29:07.731Z,2.60
2024-01-20T01:30:39.977Z,2.40
2024-01-20T01:32:12.533Z,2.15
2024-01-20T01:33:44.745Z,2.20
2024-01-20T01:35:16.962Z,2.40
2024-01-20T01:36:49.476Z,2.50
2024-01-20T01:38:21.858Z,2.22
2024-01-20T01:39:54.072Z,1.88
2024-01-20T01:41:26.577Z,1.77
2024-01-20T01:42:59.399Z,2.30
2024-01-20T01:44:31.675Z,1.83
2024-01-20T04:17:18.121Z,1.38
2024-01-20T04:18:50.650Z,1.30
2024-01-20T04:20:23.090Z,1.40
2024-01-20T04:21:55.471Z,1.55
2024-01-20T04:23:27.815Z,1.63
2024-01-20T04:25:00.101Z,1.30
2024-01-20T04:26:35.539Z,1.40
2024-01-20T04:28:07.795Z,1.30
2024-01-20T04:29:40.088Z,1.30
2024-01-20T04:31:12.375Z,1.30
2024-01-20T04:32:44.675Z,1.20
2024-01-20T04:34:17.106Z,1.58
2024-01-20T04:35:49.501Z,1.50
2024-01-20T04:37:21.782Z,1.33
2024-01-20T04:38:54.148Z,1.38
2024-01-20T04:40:26.444Z,1.40
2024-01-20T04:41:58.668Z,1.13
2024-01-20T04:43:30.920Z,1.40
2024-01-20T04:45:05.757Z,1.60
2024-01-20T04:46:38.016Z,1.20
2024-01-20T04:48:10.364Z,1.30
2024-01-20T04:49:42.792Z,1.40
2024-01-20T04:51:15.190Z,1.40
2024-01-20T04:52:47.368Z,1.20
2024-01-20T04:54:19.704Z,1.52
2024-01-20T04:55:52.020Z,1.20
2024-01-20T04:57:24.447Z,1.30
2024-01-20T04:58:56.889Z,1.35
2024-01-20T05:00:29.216Z,1.38
2024-01-20T05:02:01.670Z,1.40
2024-01-20T05:03:34.192Z,1.30
2024-01-20T06:17:39.717Z,1.38
2024-01-20T06:19:12.233Z,1.30
2024-01-20T06:20:44.544Z,1.75
2024-01-20T06:22:16.939Z,1.50
2024-01-20T06:23:52.031Z,1.60
2024-01-20T06:25:24.358Z,1.83
2024-01-20T06:26:56.693Z,3.17
2024-01-20T06:28:29.396Z,2.30
2024-01-20T06:30:02.100Z,2.63
2024-01-20T06:31:34.504Z,1.83
2024-01-20T06:33:07.156Z,1.63
2024-01-20T06:34:39.666Z,2.42
2024-01-20T06:36:11.986Z,1.70
2024-01-20T06:37:44.430Z,1.80
2024-01-20T06:39:16.736Z,1.85
2024-01-20T06:40:49.228Z,2.00
2024-01-20T06:42:21.546Z,1.83
2024-01-20T06:43:54.077Z,2.15
2024-01-20T07:01:17.791Z,2.38
2024-01-20T07:02:50.197Z,2.35
2024-01-20T07:04:22.987Z,1.70
2024-01-20T07:05:55.404Z,1.83
2024-01-20T07:07:27.867Z,1.55
2024-01-20T07:09:00.164Z,1.73
2024-01-20T07:10:32.617Z,1.45
2024-01-20T07:12:05.880Z,1.80
2024-01-20T07:13:39.096Z,1.45
2024-01-20T07:15:11.851Z,1.20
2024-01-20T07:16:44.176Z,1.42
2024-01-20T07:18:16.607Z,1.33
2024-01-20T07:19:50.111Z,1.30
2024-01-20T07:21:22.638Z,1.40
2024-01-20T07:22:55.083Z,1.50
2024-01-20T07:24:29.409Z,1.33
2024-01-20T07:26:02.251Z,1.52
2024-01-20T07:27:34.676Z,1.30
2024-01-20T07:29:07.371Z,1.45
2024-01-20T07:30:39.840Z,1.40
2024-01-20T07:32:12.868Z,1.50
2024-01-20T07:33:45.407Z,1.45
2024-01-20T07:35:17.852Z,1.30
2024-01-20T07:36:50.050Z,1.40
2024-01-20T07:38:22.346Z,1.40
2024-01-20T07:39:55.258Z,1.50
2024-01-20T07:41:27.593Z,1.45
2024-01-20T07:43:02.971Z,1.80
2024-01-20T07:44:35.381Z,1.48
2024-01-20T07:46:09.640Z,1.45
2024-01-20T07:47:41.974Z,1.40
2024-01-20T07:49:14.204Z,1.52
2024-01-20T07:50:46.538Z,1.50
2024-01-20T07:52:18.922Z,1.70
2024-01-20T07:53:53.641Z,1.80
2024-01-20T07:55:25.979Z,1.98
2024-01-20T07:56:58.377Z,2.00
2024-01-20T07:58:30.881Z,1.40
2024-01-20T08:00:03.953Z,1.40
2024-01-20T08:01:36.298Z,1.40
2024-01-20T08:03:08.661Z,1.50
2024-01-20T08:04:41.016Z,2.17
2024-01-20T08:06:13.593Z,1.50
2024-01-20T08:07:45.927Z,1.40
2024-01-20T08:09:18.438Z,1.50
2024-01-20T08:10:50.767Z,1.77
2024-01-20T08:12:23.170Z,1.70
2024-01-20T08:13:55.602Z,1.60
2024-01-20T08:15:28.655Z,1.70
2024-01-20T08:17:01.051Z,5.22
2024-01-20T08:18:33.475Z,4.45
2024-01-20T08:20:06.697Z,6.65
2024-01-20T08:21:39.159Z,4.82
2024-01-20T08:23:11.572Z,5.38
2024-01-20T08:24:43.935Z,3.92
2024-01-20T08:26:16.590Z,4.13
2024-01-20T08:27:48.886Z,7.35
2024-01-20T08:29:21.550Z,8.00
2024-01-20T08:30:54.190Z,5.03
2024-01-20T08:32:26.662Z,4.73
2024-01-20T08:33:59.194Z,6.93
2024-01-20T08:35:31.646Z,6.15
2024-01-20T08:37:04.196Z,5.53
2024-01-20T08:38:37.068Z,5.20
2024-01-20T08:40:09.594Z,4.40
2024-01-20T08:41:42.545Z,5.07
2024-01-20T08:43:17.322Z,3.92
2024-01-20T08:44:49.664Z,4.55
2024-01-20T08:46:22.003Z,5.72
2024-01-20T08:47:54.360Z,7.68
2024-01-20T08:49:26.788Z,11.25
2024-01-20T08:50:59.179Z,7.78
2024-01-20T08:52:31.634Z,7.93
2024-01-20T08:54:04.289Z,6.75
2024-01-20T08:55:40.026Z,8.57
2024-01-20T08:57:12.438Z,11.27
2024-01-20T08:58:44.837Z,9.25
2024-01-20T09:00:18.444Z,7.30
2024-01-20T09:03:23.248Z,8.25
2024-01-20T09:04:55.614Z,6.40
2024-01-20T09:06:28.009Z,9.25
2024-01-20T09:08:00.362Z,8.13
2024-01-20T09:09:32.822Z,6.18
2024-01-20T09:11:05.384Z,6.18
2024-01-20T09:12:37.869Z,7.65
2024-01-20T09:14:10.313Z,6.40
2024-01-20T09:15:42.767Z,8.70
2024-01-20T09:17:15.332Z,7.43
2024-01-20T09:18:47.884Z,5.72
2024-01-20T09:20:23.161Z,7.27
2024-01-20T09:21:55.594Z,8.63
2024-01-20T09:23:28.002Z,6.28
2024-01-20T09:25:00.795Z,13.88
2024-01-20T09:26:33.158Z,20.52
2024-01-20T09:28:05.810Z,17.38
2024-01-20T09:29:39.920Z,14.00
2024-01-20T09:31:13.640Z,9.05
2024-01-20T09:32:46.204Z,12.38
2024-01-20T09:34:21.328Z,9.13
2024-01-20T09:35:53.595Z,9.57
2024-01-20T09:37:25.867Z,6.18
2024-01-20T09:38:58.160Z,6.47
2024-01-20T09:40:31.837Z,6.30
2024-01-20T09:43:39.889Z,8.25
2024-01-20T09:45:12.482Z,5.22
2024-01-20T09:46:45.115Z,4.93
2024-01-20T09:48:17.742Z,4.70
2024-01-20T09:49:50.212Z,4.15
2024-01-20T09:51:30.045Z,4.18
2024-01-20T09:53:13.913Z,4.65
2024-01-20T09:55:12.228Z,4.43
2024-01-20T09:56:45.559Z,4.40
2024-01-20T09:58:18.730Z,4.78
2024-01-20T09:59:52.374Z,5.38
2024-01-20T10:01:27.673Z,5.80
2024-01-20T10:03:03.450Z,5.55
2024-01-20T10:04:36.934Z,5.65
2024-01-20T10:07:42.213Z,4.22
2024-01-20T10:09:14.500Z,4.78
2024-01-20T10:10:47.021Z,4.60
2024-01-20T10:12:19.436Z,4.47
2024-01-20T10:13:52.328Z,5.05
2024-01-20T10:15:32.722Z,5.22
2024-01-20T10:17:06.935Z,11.88
2024-01-20T10:18:39.317Z,7.70
2024-01-20T10:20:22.868Z,7.53
2024-01-20T10:21:55.278Z,11.15
2024-01-20T10:23:27.656Z,11.48
2024-01-20T10:25:00.815Z,10.25
2024-01-20T10:26:33.136Z,13.10
2024-01-20T10:28:05.726Z,13.35
2024-01-20T10:29:38.029Z,12.32
2024-01-20T10:31:10.811Z,12.55
2024-01-20T10:32:54.045Z,13.95
2024-01-20T10:34:38.728Z,8.65
2024-01-20T10:36:12.430Z,5.97
2024-01-20T10:37:46.395Z,5.35
2024-01-20T10:39:21.791Z,5.82
2024-01-20T10:40:54.798Z,6.20
2024-01-20T10:42:33.756Z,4.20
2024-01-20T10:44:07.032Z,6.13
2024-01-20T10:45:47.252Z,4.88
2024-01-20T10:47:26.986Z,5.57
2024-01-20T10:49:02.217Z,5.68
2024-01-20T10:50:36.065Z,5.68
2024-01-20T10:52:08.507Z,5.28
2024-01-20T10:53:41.853Z,5.68
2024-01-20T10:55:17.385Z,5.85
2024-01-20T10:56:49.753Z,5.45
2024-01-20T10:58:25.577Z,5.40
2024-01-20T10:59:59.563Z,6.25
2024-01-20T11:01:32.359Z,6.68
2024-01-20T11:03:06.434Z,5.55
2024-01-20T11:04:45.555Z,6.50
2024-01-20T11:06:26.571Z,7.55
2024-01-20T11:08:09.155Z,6.25
2024-01-20T11:09:41.557Z,6.47
2024-01-20T11:11:14.152Z,12.00
2024-01-20T11:13:09.212Z,6.47
2024-01-20T11:14:51.728Z,6.53
2024-01-20T11:16:24.389Z,6.38
2024-01-20T11:17:57.376Z,6.53
2024-01-20T11:19:34.594Z,6.32
2024-01-20T11:21:06.913Z,6.40
2024-01-20T11:22:42.267Z,7.00
2024-01-20T11:24:16.191Z,7.15
2024-01-20T11:25:48.613Z,6.32
2024-01-20T11:27:20.872Z,6.90
2024-01-20T11:28:53.172Z,6.35
2024-01-20T11:30:28.059Z,7.47
2024-01-20T11:32:00.442Z,7.00
2024-01-20T11:33:33.537Z,6.93
2024-01-20T11:35:07.419Z,6.78
2024-01-20T11:36:40.032Z,6.75
2024-01-20T11:38:15.183Z,6.87
2024-01-20T11:39:47.840Z,6.80
2024-01-20T11:41:20.252Z,7.60
2024-01-20T11:42:52.663Z,8.02
2024-01-20T11:44:25.123Z,7.45
2024-01-20T11:45:58.746Z,6.75
2024-01-20T11:47:31.676Z,7.40
2024-01-20T11:49:04.279Z,7.05
2024-01-20T11:50:36.617Z,7.03
2024-01-20T11:52:09.044Z,7.65
2024-01-20T11:53:41.359Z,6.78
2024-01-20T11:55:13.861Z,6.95
2024-01-20T11:56:46.189Z,6.68
2024-01-20T11:58:18.393Z,6.97
2024-01-20T11:59:51.318Z,6.63
2024-01-20T12:01:23.878Z,7.47
2024-01-20T12:02:56.485Z,7.17
2024-01-20T12:04:29.310Z,7.25
2024-01-20T12:06:12.174Z,7.53
2024-01-20T12:07:46.669Z,7.10
2024-01-20T12:09:19.160Z,7.80
2024-01-20T12:10:52.629Z,7.85
2024-01-20T12:12:26.862Z,7.88
2024-01-20T12:13:59.288Z,7.68
2024-01-20T12:17:04.470Z,7.32
2024-01-20T12:20:10.187Z,7.28
2024-01-20T12:23:22.157Z,7.25
2024-01-20T12:26:27.654Z,7.18
2024-01-20T12:28:00.859Z,6.57
2024-01-20T12:29:33.552Z,6.70
2024-01-20T12:31:05.847Z,7.25
2024-01-20T12:32:38.177Z,6.80
2024-01-20T12:34:10.675Z,6.63
2024-01-20T12:35:43.143Z,7.18
2024-01-20T12:37:15.477Z,7.05
2024-01-20T12:38:47.936Z,6.82
2024-01-20T12:40:20.675Z,7.38
2024-01-20T12:41:54.608Z,5.85
2024-01-20T12:43:27.509Z,6.75
2024-01-20T12:45:00.807Z,6.93
2024-01-20T12:46:33.169Z,6.70
2024-01-20T13:11:02.899Z,6.80
2024-01-20T13:12:36.476Z,6.18
2024-01-20T13:15:41.137Z,6.88
2024-01-20T13:17:13.668Z,6.55
2024-01-20T13:18:46.222Z,7.32
2024-01-20T13:20:18.955Z,6.78
2024-01-20T13:21:51.876Z,6.88
2024-01-20T13:23:24.335Z,6.13
2024-01-20T13:24:58.878Z,7.50
2024-01-20T13:26:31.278Z,8.52
2024-01-20T13:28:03.921Z,6.57
2024-01-20T13:29:36.294Z,7.03
2024-01-20T13:31:08.655Z,7.63
2024-01-20T13:32:41.343Z,6.60
2024-01-20T13:34:13.867Z,7.80
2024-01-20T13:35:46.218Z,8.52
2024-01-20T13:37:20.698Z,8.55
2024-01-20T13:42:13.787Z,8.15
2024-01-20T13:43:46.202Z,7.57
2024-01-20T13:45:18.667Z,5.78
2024-01-20T13:46:51.263Z,5.03
2024-01-20T13:48:24.051Z,5.05
2024-01-20T13:49:56.709Z,5.13
2024-01-20T13:51:33.388Z,4.50
2024-01-20T13:53:05.882Z,3.80
2024-01-20T13:54:38.484Z,2.50
2024-01-20T13:56:13.124Z,2.30
2024-01-20T13:57:45.575Z,1.70
2024-01-20T13:59:17.973Z,1.90
2024-01-20T14:00:50.554Z,1.67
2024-01-20T14:02:22.993Z,1.33
2024-01-20T14:03:55.591Z,1.88
2024-01-20T14:05:27.966Z,2.00
2024-01-20T14:08:36.652Z,1.65
2024-01-20T14:10:10.163Z,1.70
2024-01-20T14:11:42.801Z,1.65
2024-01-20T14:13:15.186Z,1.70
2024-01-20T14:14:47.981Z,2.00
2024-01-20T14:16:20.905Z,1.95
2024-01-20T14:17:53.880Z,1.60
2024-01-20T14:19:26.941Z,1.73
2024-01-20T14:20:59.940Z,1.67
2024-01-20T14:22:42.122Z,1.77
2024-01-20T15:11:53.494Z,4.35
2024-01-20T15:13:25.714Z,1.40
2024-01-20T15:14:57.958Z,1.30
2024-01-20T15:16:30.359Z,1.58
2024-01-20T15:18:02.994Z,1.70
2024-01-20T15:19:39.598Z,1.50
2024-01-20T15:21:12.003Z,1.42
2024-01-20T15:22:48.026Z,1.50
2024-01-20T15:24:20.463Z,1.80
2024-01-20T15:25:54.916Z,1.65
2024-01-20T15:27:27.684Z,1.73
2024-01-20T15:29:00.082Z,1.90
2024-01-20T15:30:32.433Z,1.95
2024-01-20T15:32:05.963Z,1.90
2024-01-20T15:35:11.335Z,2.50
2024-01-20T15:36:43.911Z,2.08
2024-01-20T15:38:16.225Z,3.63
2024-01-20T15:39:49.672Z,2.17
2024-01-20T15:43:05.231Z,7.30
2024-01-20T15:44:37.656Z,8.90
2024-01-20T15:46:10.282Z,2.67
2024-01-20T15:47:42.730Z,2.75
2024-01-20T15:49:15.717Z,4.88
2024-01-20T15:50:48.188Z,4.30
2024-01-20T15:52:20.471Z,3.13
2024-01-20T15:53:52.840Z,3.75
2024-01-20T15:55:25.806Z,3.88
2024-01-20T15:56:58.112Z,5.50
2024-01-20T15:58:30.955Z,5.15
2024-01-20T16:00:04.612Z,6.35
2024-01-20T16:01:37.005Z,6.03
2024-01-20T16:03:09.573Z,6.45
2024-01-20T16:04:41.920Z,8.77
2024-01-20T18:16:25.338Z,9.52
2024-01-20T18:17:58.441Z,9.02
2024-01-20T18:19:30.940Z,9.60
2024-01-20T18:21:04.052Z,4.47
2024-01-20T18:22:36.620Z,3.60
2024-01-20T18:24:09.697Z,3.80
2024-01-20T18:25:42.157Z,3.42
2024-01-20T18:27:14.531Z,3.10
2024-01-20T18:28:47.088Z,2.55
2024-01-20T18:30:19.424Z,2.13
2024-01-20T18:31:51.883Z,2.80
2024-01-20T18:33:24.429Z,2.47
2024-01-20T18:34:56.966Z,2.27
2024-01-20T18:36:29.393Z,2.22
2024-01-20T18:38:01.812Z,2.00
2024-01-20T18:39:35.178Z,2.22
2024-01-20T18:41:07.501Z,1.92
2024-01-20T18:42:39.846Z,2.33
2024-01-20T18:44:16.212Z,2.10
2024-01-20T18:45:48.586Z,2.28
2024-01-20T18:47:20.936Z,2.45
2024-01-20T18:48:53.363Z,2.88
2024-01-20T18:50:25.914Z,2.40
2024-01-20T18:52:01.107Z,2.10
2024-01-20T18:53:33.750Z,3.03
2024-01-20T18:55:06.490Z,2.60
2024-01-20T18:56:41.718Z,2.53
2024-01-20T18:58:14.063Z,3.75
2024-01-20T18:59:46.584Z,3.63
2024-01-20T19:01:19.435Z,2.53
2024-01-20T19:02:53.004Z,2.67
2024-01-20T19:05:57.529Z,3.05
2024-01-20T19:07:29.796Z,2.83
2024-01-20T19:09:02.157Z,3.08
2024-01-20T19:10:34.428Z,2.80
2024-01-20T19:12:07.077Z,2.72
2024-01-20T19:13:39.449Z,2.80
2024-01-20T19:15:11.947Z,2.80
2024-01-20T19:16:46.473Z,2.90
2024-01-20T19:18:19.171Z,2.88
2024-01-20T19:19:51.800Z,2.70
2024-01-20T19:21:24.144Z,2.83
2024-01-20T19:22:56.463Z,2.20
2024-01-20T19:24:36.422Z,3.92
2024-01-20T19:26:12.358Z,8.25
2024-01-20T19:27:44.689Z,4.18
2024-01-20T19:29:20.430Z,4.18
2024-01-20T19:30:52.850Z,3.90
2024-01-20T19:32:25.282Z,4.55
2024-01-20T19:33:57.963Z,6.80
2024-01-20T19:35:30.391Z,6.40
2024-01-20T19:37:03.006Z,7.00
2024-01-20T19:38:35.758Z,7.65
2024-01-20T19:40:09.486Z,5.70
2024-01-20T19:41:41.733Z,6.55
2024-01-20T19:43:14.851Z,8.98
2024-01-20T19:44:50.112Z,7.13
2024-01-20T19:46:22.457Z,7.50
2024-01-20T19:47:54.944Z,7.25
2024-01-20T19:49:27.487Z,7.75
2024-01-20T19:51:00.234Z,12.25
2024-01-20T19:52:32.608Z,8.90
2024-01-20T19:54:05.055Z,7.43
2024-01-20T19:55:37.546Z,7.30
2024-01-20T19:57:09.982Z,8.65
2024-01-20T19:58:42.313Z,8.02
2024-01-20T20:01:53.069Z,6.50
2024-01-20T20:03:25.601Z,8.48
2024-01-20T20:04:58.052Z,9.65
2024-01-20T20:06:30.417Z,11.63
2024-01-20T20:08:03.287Z,11.30
2024-01-20T20:09:37.995Z,10.88
2024-01-20T20:11:10.291Z,11.18
2024-01-20T20:12:42.671Z,11.98
2024-01-20T20:14:18.766Z,12.35
2024-01-20T20:15:51.316Z,10.52
2024-01-20T20:17:24.600Z,9.02
2024-01-20T20:18:57.087Z,8.63
2024-01-20T20:20:30.850Z,10.13
2024-01-20T20:22:03.282Z,10.73
2024-01-20T20:23:35.574Z,9.68
2024-01-20T20:25:08.047Z,10.27
2024-01-20T20:26:44.224Z,7.38
2024-01-20T20:28:16.615Z,6.40
2024-01-20T20:29:49.129Z,7.70
2024-01-20T20:31:26.274Z,7.65
2024-01-20T20:32:58.732Z,6.80
2024-01-20T20:34:31.255Z,8.10
2024-01-20T20:36:05.984Z,6.82
2024-01-20T20:37:40.841Z,5.63
2024-01-20T20:39:13.959Z,5.40
2024-01-20T20:40:46.401Z,6.03
2024-01-20T20:42:18.939Z,4.60
2024-01-20T20:43:51.143Z,3.38
2024-01-20T20:45:23.566Z,3.55
2024-01-20T20:47:01.868Z,3.80
2024-01-20T20:48:34.710Z,3.40
2024-01-20T20:50:07.868Z,3.53
2024-01-20T20:51:40.403Z,5.70
2024-01-20T20:53:13.443Z,3.25
2024-01-20T20:54:45.882Z,5.65
2024-01-20T20:56:18.287Z,7.00
2024-01-20T20:57:50.791Z,13.73
2024-01-20T20:59:23.203Z,13.48
2024-01-20T21:00:55.841Z,9.23
2024-01-20T21:02:28.140Z,5.95
2024-01-20T21:04:05.173Z,7.18
2024-01-20T21:07:14.104Z,3.58
2024-01-20T21:08:46.333Z,3.92
2024-01-20T21:10:21.624Z,4.20
2024-01-20T21:11:54.029Z,3.83
2024-01-20T21:13:26.370Z,4.13
2024-01-20T21:14:58.690Z,3.55
2024-01-20T21:16:31.136Z,3.15
2024-01-20T21:18:03.534Z,3.38
2024-01-20T21:19:36.171Z,3.03
2024-01-20T21:21:08.597Z,4.00
2024-01-20T21:22:41.008Z,3.33
2024-01-20T21:24:13.797Z,3.28
2024-01-20T21:25:46.404Z,4.00
2024-01-20T21:27:20.855Z,4.17
2024-01-20T21:28:53.174Z,7.28
2024-01-20T21:30:28.965Z,5.88
2024-01-20T21:32:01.228Z,4.88
2024-01-20T21:33:34.102Z,4.40
2024-01-20T21:35:06.821Z,4.80
2024-01-20T21:36:39.190Z,5.93
2024-01-20T21:38:11.453Z,5.93
2024-01-20T21:39:44.423Z,6.10
2024-01-20T21:41:16.649Z,7.15
2024-01-20T21:42:48.899Z,4.78
2024-01-20T21:44:21.213Z,5.75
2024-01-20T21:45:53.444Z,5.30
2024-01-20T21:47:26.557Z,5.03
2024-01-20T21:48:59.026Z,6.07
2024-01-20T21:50:31.315Z,5.32
2024-01-20T21:52:04.106Z,6.88
2024-01-20T21:53:37.291Z,5.10
2024-01-20T21:55:10.193Z,4.70
2024-01-20T21:56:42.525Z,5.20
2024-01-20T21:58:14.875Z,5.18
2024-01-20T21:59:47.215Z,5.72
2024-01-20T22:01:19.709Z,6.65
2024-01-20T22:02:52.126Z,6.20
2024-01-20T22:04:25.193Z,8.10
2024-01-20T22:05:57.426Z,6.53
2024-01-20T22:07:29.637Z,7.40
2024-01-20T22:10:36.422Z,5.57
2024-01-20T22:12:08.924Z,7.85
2024-01-20T22:13:41.252Z,8.23
2024-01-20T22:15:13.520Z,7.72
2024-01-20T22:16:45.790Z,9.48
2024-01-20T22:18:18.245Z,8.10
2024-01-20T22:19:50.635Z,9.30
2024-01-20T22:21:22.969Z,12.38
2024-01-20T22:22:55.240Z,13.18
2024-01-20T22:24:27.618Z,9.80
2024-01-20T22:25:59.873Z,8.10
2024-01-20T22:27:32.189Z,7.93
2024-01-20T22:29:14.542Z,12.73
2024-01-20T22:30:52.344Z,12.80
2024-01-20T22:32:24.828Z,9.77
2024-01-20T22:33:57.643Z,6.65
2024-01-20T22:35:31.116Z,11.30
2024-01-20T22:37:03.493Z,10.55
2024-01-20T22:38:36.112Z,9.15
2024-01-20T22:40:09.958Z,8.55
2024-01-20T22:41:44.602Z,6.85
2024-01-20T22:43:16.924Z,9.23
2024-01-20T22:44:52.052Z,8.55
2024-01-20T22:46:25.381Z,7.85
2024-01-20T22:47:58.834Z,6.15
2024-01-20T22:49:32.146Z,5.40
2024-01-20T22:51:05.499Z,5.75
2024-01-20T22:52:37.781Z,5.45
2024-01-20T22:54:10.117Z,4.80
2024-01-20T22:55:42.565Z,4.45
2024-01-20T22:57:14.922Z,5.53
2024-01-20T22:58:47.190Z,5.78
2024-01-20T23:00:27.510Z,4.45
2024-01-20T23:01:59.778Z,4.78
2024-01-20T23:03:32.093Z,5.40
2024-01-20T23:05:05.553Z,4.53
2024-01-20T23:06:37.964Z,4.25
2024-01-20T23:08:13.330Z,3.67
2024-01-20T23:09:45.584Z,4.38
2024-01-20T23:11:18.982Z,5.07
2024-01-20T23:12:51.613Z,4.93
2024-01-20T23:14:23.960Z,4.18
2024-01-20T23:15:56.377Z,4.57
2024-01-20T23:17:28.635Z,3.83
2024-01-20T23:19:01.056Z,4.35
2024-01-20T23:20:35.133Z,3.20
2024-01-20T23:22:07.746Z,3.20
2024-01-20T23:23:39.996Z,4.50
2024-01-20T23:25:12.442Z,3.42
2024-01-20T23:26:46.394Z,3.05
2024-01-20T23:28:18.586Z,4.15
2024-01-20T23:29:50.801Z,3.50
2024-01-20T23:31:23.149Z,3.92
2024-01-20T23:32:55.724Z,4.13
2024-01-20T23:34:28.024Z,7.72
2024-01-20T23:36:00.313Z,5.30
2024-01-20T23:37:32.575Z,4.10
2024-01-20T23:39:04.956Z,3.50
2024-01-20T23:40:37.206Z,3.28
2024-01-20T23:42:09.475Z,3.03
2024-01-20T23:43:41.771Z,3.30
2024-01-20T23:45:15.061Z,2.90
2024-01-20T23:46:47.374Z,2.92
2024-01-20T23:48:20.514Z,3.30
2024-01-20T23:49:52.834Z,2.42
2024-01-20T23:51:25.248Z,1.95
2024-01-20T23:52:57.488Z,2.47
2024-01-20T23:54:30.054Z,2.17
2024-01-20T23:56:02.305Z,2.20
2024-01-20T23:57:34.586Z,2.67
2024-01-20T23:59:07.151Z,2.10
